Huvudsida
METAR-TAF:

METAR-TAF

Flygplatser :

Luleå Airport

Luleå, Sverige

latitud: 65-33N, longitud: 022-08E, höjd: 17 m

Aktuellt väderrapport

Denna rapport gjordes för 30 minuter sedan, klockan 16:20 UTC
Vind 2 kt varierande vindriktning
Temperatur 17°C
Fuktighet 63%
Tryck 1003 hPa
Sikt 10 km eller mer
Få moln på en höjd av 9400 ft, Cumulonimbus.

METAR: ESPA 071620Z VRB02KT 9999 FEW094CB 17/10 Q1003

Tid: 18:50 (16:50 UTC)

Väderprognos

Denna rapport gjordes för 2 timmar och 20 minuter sedan, klockan 14:30 UTC
Prognos gäller från 07 kl. 15 UTC till 07 kl. 19 UTC
Vind 10 kt från syd/sydväst
Sikt 10 km eller mer
Inga moln under 1 500 m eller inga cumulonimbus
Temporärt
från 07 kl. 15 UTC till 07 kl. 17 UTC
Spridda moln på en höjd av 4000 ft, Cumulonimbus.
regnskurar
Blir
från 07 kl. 16 UTC till 07 kl. 18 UTC
Vind 10 kt från väst

TAF: ESPA 071430Z 0715/0719 20010KT CAVOK TEMPO 0715/0717 SHRA SCT040CB BECMG 0716/0718 27010KT

Aktuella väderrapporter och prognoser från 4000 flygplatser (METAR- och TAF-rapporter).

De tillgängliga stationerna syns som gula och röda prickar på kartan.

För musen över prickarna för att se namnen på stationerna.

Klicka sedan för att få väderrapporter och prognoser.

För att ändra kartan: Klicka på de gröna knapparna med ett svart kors på för att zooma in; den gröna knappen med ett streck på för att zooma ut; eller på de gröna pilarna för angränsande kartor.


METAR-TAF: